F/V Argentario — FGPE — position and weather

sailwx.info

Track history (hours):
 
Tides and Currents Weather Stations Pressure Air Temp Water Temp Dewpoint Dewpoint Depression Visibility Wind Speed Wind Dir Waves Ship Positions

F/V Argentario

Last reported at 2017-Jul-19 23:40 UTC. Time now 2017-Jul-26 10:34 UTC.
Position N 46°28' W 002°18'.

Length 22 m; draft 3.4 m.

Type: Fishing. MMSI: 228975000.

Date/timePositionNaut miles runAvg speedWind from/ knotsBaromVisibWave heightAir tempDewpointWater temp
2017-Jul-19 23:40N 46°28' W 002°18'1 7.6
2017-Jul-19 23:29N 46°28' W 002°16'4 7.7
2017-Jul-19 23:00N 46°28' W 002°11'4 8.0
2017-Jul-19 22:30N 46°29' W 002°05'4 8.0
2017-Jul-19 22:00N 46°29' W 001°59'4 8.2
2017-Jul-19 21:30N 46°29' W 001°53'4 8.3
2017-Jul-19 21:00N 46°29' W 001°47'1 2.6
2017-Jul-19 20:30N 46°30' W 001°47'0 0.4
2017-Jul-19 20:00N 46°30' W 001°47'0 0.5
2017-Jul-19 19:30N 46°30' W 001°48'2 3.6
2017-Jul-19 19:00N 46°29' W 001°49'4 8.5
2017-Jul-19 18:30N 46°29' W 001°56'4 8.5
2017-Jul-19 18:00N 46°28' W 002°02'4 8.3
2017-Jul-19 17:30N 46°29' W 002°08'5 8.2
2017-Jul-19 16:54N 46°28' W 002°15'54 3.7
2017-Jul-19 02:28N 46°28' W 003°33'1 1.4
2017-Jul-19 02:00N 46°29' W 003°33'0 0.0
2017-Jul-19 01:24N 46°28' W 003°32'0 0.0
2017-Jul-18 21:57N 46°28' W 003°32'0 0.0
2017-Jul-18 21:09N 46°28' W 003°32'52 1.1
2017-Jul-16 19:56N 46°44' W 002°21'0 0.2
2017-Jul-16 17:30N 46°44' W 002°21'22 8.5
2017-Jul-16 14:54N 46°35' W 002°50'7 9.1
2017-Jul-16 14:07N 46°31' W 002°59'1 9.1
2017-Jul-16 13:59N 46°31' W 003°01'5 9.2
2017-Jul-16 13:25N 46°28' W 003°08'5 9.1
2017-Jul-16 12:55N 46°26' W 003°13'4 8.7
2017-Jul-16 12:30N 46°24' W 003°18'2 1.7
2017-Jul-16 11:33N 46°22' W 003°19'1 6.1
2017-Jul-16 11:26N 46°22' W 003°20'5 8.8
2017-Jul-16 10:55N 46°18' W 003°21'4 9.0
2017-Jul-16 10:25N 46°14' W 003°23'2 1.7
2017-Jul-16 09:29N 46°12' W 003°24'0 0.8
2017-Jul-16 08:54N 46°12' W 003°24'0 0.9
2017-Jul-16 08:30N 46°12' W 003°25'0 0.5
2017-Jul-16 08:01N 46°12' W 003°25'1 0.8
2017-Jul-16 07:16N 46°13' W 003°25'0 1.0
2017-Jul-16 06:58N 46°13' W 003°25'0 1.0
2017-Jul-16 06:31N 46°13' W 003°24'0 1.0
2017-Jul-16 06:00N 46°13' W 003°23'1 1.1
2017-Jul-16 05:29N 46°13' W 003°23'0 0.9
2017-Jul-16 05:00N 46°13' W 003°23'1 1.1
2017-Jul-16 04:30N 46°13' W 003°24'1 1.1
2017-Jul-16 03:59N 46°13' W 003°25'0 0.8
2017-Jul-16 03:31N 46°13' W 003°25'0 0.1
2017-Jul-16 02:58N 46°13' W 003°25'0 0.4
2017-Jul-16 02:10N 46°14' W 003°26'0 0.3
2017-Jul-16 01:58N 46°14' W 003°26'0 0.2
2017-Jul-16 01:25N 46°13' W 003°26'0 0.2
2017-Jul-16 00:58N 46°13' W 003°26'0 0.1
2017-Jul-16 00:28N 46°13' W 003°26'0 0.1
2017-Jul-15 23:58N 46°13' W 003°26'0 0.1
2017-Jul-15 23:28N 46°13' W 003°26'0 0.1
2017-Jul-15 22:58N 46°13' W 003°26'0 0.1
2017-Jul-15 22:28N 46°13' W 003°26'0 0.1
2017-Jul-15 21:49N 46°13' W 003°26'0 0.1
2017-Jul-15 21:28N 46°13' W 003°26'0 0.1
2017-Jul-15 20:55N 46°13' W 003°26'0 0.0
2017-Jul-15 20:28N 46°13' W 003°26'0 0.1
2017-Jul-15 19:58N 46°13' W 003°26'0 0.1
2017-Jul-15 19:28N 46°13' W 003°26'0 0.1
2017-Jul-15 18:55N 46°13' W 003°26'0 0.0
2017-Jul-15 18:28N 46°13' W 003°26'0 0.1
2017-Jul-15 17:55N 46°13' W 003°26'0 0.1
2017-Jul-15 17:30N 46°13' W 003°26'0 0.0
2017-Jul-15 16:58N 46°13' W 003°26'0 0.1
2017-Jul-15 16:28N 46°13' W 003°26'1 1.4
2017-Jul-15 15:45N 46°13' W 003°24'1 3.2
2017-Jul-15 15:26N 46°13' W 003°23'2 4.5
2017-Jul-15 15:00N 46°12' W 003°26'1 0.3
2017-Jul-15 10:42N 46°12' W 003°24'2 6.8
2017-Jul-15 10:28N 46°12' W 003°22'2 0.3
2017-Jul-15 05:13N 46°13' W 003°24'0 0.0
2017-Jul-14 13:27N 46°13' W 003°24'0 0.9
2017-Jul-14 13:00N 46°13' W 003°24'2 2.7
2017-Jul-14 12:26N 46°12' W 003°22'2 3.8
2017-Jul-14 12:00N 46°12' W 003°24'3 5.3
2017-Jul-14 11:26N 46°12' W 003°19'1 2.6
2017-Jul-14 10:59N 46°13' W 003°19'0 0.9
2017-Jul-14 10:30N 46°13' W 003°19'1 0.9
2017-Jul-14 09:53N 46°13' W 003°20'0 0.8
2017-Jul-14 09:27N 46°13' W 003°21'1 1.5
2017-Jul-14 09:00N 46°12' W 003°21'0 0.7
2017-Jul-14 08:29N 46°12' W 003°21'1 1.1
2017-Jul-14 07:32N 46°12' W 003°19'0 1.2
2017-Jul-14 07:12N 46°12' W 003°19'1 0.6
2017-Jul-14 04:44N 46°14' W 003°18'0 1.3
2017-Jul-14 04:26N 46°13' W 003°17'45 1.5
2017-Jul-12 22:19N 46°24' W 002°14'3 8.1
2017-Jul-12 22:00N 46°24' W 002°10'4 8.1
2017-Jul-12 21:31N 46°25' W 002°05'4 7.8
2017-Jul-12 21:01N 46°26' W 001°59'4 7.8
2017-Jul-12 20:30N 46°27' W 001°54'4 7.9
2017-Jul-12 20:01N 46°28' W 001°48'2 3.3
2017-Jul-12 19:31N 46°30' W 001°47'0 0.0
2017-Jul-12 19:00N 46°30' W 001°47'0 0.0
2017-Jul-12 18:31N 46°30' W 001°47'0 0.0
2017-Jul-12 18:00N 46°30' W 001°47'2 3.8
2017-Jul-12 17:30N 46°28' W 001°48'510.1
2017-Jul-12 17:00N 46°27' W 001°56'510.3
2017-Jul-12 16:30N 46°26' W 002°03'510.3
2017-Jul-12 16:01N 46°24' W 002°10'  
2017-Jul-10 11:40N 46°17' W 003°03'2 9.4
2017-Jul-10 11:30N 46°17' W 003°05'0 0.4
2017-Jul-10 10:29N 46°17' W 003°04'1 1.0
2017-Jul-10 09:07N 46°17' W 003°02'0 0.9
2017-Jul-10 08:46N 46°17' W 003°02'0 1.0
2017-Jul-10 08:27N 46°17' W 003°02'3 2.7
2017-Jul-10 07:29N 46°17' W 003°05'  
Track history (hours):
 
Tides and Currents Weather Stations Pressure Air Temp Water Temp Dewpoint Dewpoint Depression Visibility Wind Speed Wind Dir Waves Ship Positions

F/V Argentario

Last reported at 2017-Jul-19 23:40 UTC. Time now 2017-Jul-26 10:34 UTC.
Position N 46°28' W 002°18'.

Length 22 m; draft 3.4 m.

Type: Fishing. MMSI: 228975000.

Date/timePositionNaut miles runAvg speedWind from/ knotsBaromVisibWave heightAir tempDewpointWater temp
2017-Jul-19 23:40N 46°28' W 002°18'1 7.6
2017-Jul-19 23:29N 46°28' W 002°16'4 7.7
2017-Jul-19 23:00N 46°28' W 002°11'4 8.0
2017-Jul-19 22:30N 46°29' W 002°05'4 8.0
2017-Jul-19 22:00N 46°29' W 001°59'4 8.2
2017-Jul-19 21:30N 46°29' W 001°53'4 8.3
2017-Jul-19 21:00N 46°29' W 001°47'1 2.6
2017-Jul-19 20:30N 46°30' W 001°47'0 0.4
2017-Jul-19 20:00N 46°30' W 001°47'0 0.5
2017-Jul-19 19:30N 46°30' W 001°48'2 3.6
2017-Jul-19 19:00N 46°29' W 001°49'4 8.5
2017-Jul-19 18:30N 46°29' W 001°56'4 8.5
2017-Jul-19 18:00N 46°28' W 002°02'4 8.3
2017-Jul-19 17:30N 46°29' W 002°08'5 8.2
2017-Jul-19 16:54N 46°28' W 002°15'54 3.7
2017-Jul-19 02:28N 46°28' W 003°33'1 1.4
2017-Jul-19 02:00N 46°29' W 003°33'0 0.0
2017-Jul-19 01:24N 46°28' W 003°32'0 0.0
2017-Jul-18 21:57N 46°28' W 003°32'0 0.0
2017-Jul-18 21:09N 46°28' W 003°32'52 1.1
2017-Jul-16 19:56N 46°44' W 002°21'0 0.2
2017-Jul-16 17:30N 46°44' W 002°21'22 8.5
2017-Jul-16 14:54N 46°35' W 002°50'7 9.1
2017-Jul-16 14:07N 46°31' W 002°59'1 9.1
2017-Jul-16 13:59N 46°31' W 003°01'5 9.2
2017-Jul-16 13:25N 46°28' W 003°08'5 9.1
2017-Jul-16 12:55N 46°26' W 003°13'4 8.7
2017-Jul-16 12:30N 46°24' W 003°18'2 1.7
2017-Jul-16 11:33N 46°22' W 003°19'1 6.1
2017-Jul-16 11:26N 46°22' W 003°20'5 8.8
2017-Jul-16 10:55N 46°18' W 003°21'4 9.0
2017-Jul-16 10:25N 46°14' W 003°23'2 1.7
2017-Jul-16 09:29N 46°12' W 003°24'0 0.8
2017-Jul-16 08:54N 46°12' W 003°24'0 0.9
2017-Jul-16 08:30N 46°12' W 003°25'0 0.5
2017-Jul-16 08:01N 46°12' W 003°25'1 0.8
2017-Jul-16 07:16N 46°13' W 003°25'0 1.0
2017-Jul-16 06:58N 46°13' W 003°25'0 1.0
2017-Jul-16 06:31N 46°13' W 003°24'0 1.0
2017-Jul-16 06:00N 46°13' W 003°23'1 1.1
2017-Jul-16 05:29N 46°13' W 003°23'0 0.9
2017-Jul-16 05:00N 46°13' W 003°23'1 1.1
2017-Jul-16 04:30N 46°13' W 003°24'1 1.1
2017-Jul-16 03:59N 46°13' W 003°25'0 0.8
2017-Jul-16 03:31N 46°13' W 003°25'0 0.1
2017-Jul-16 02:58N 46°13' W 003°25'0 0.4
2017-Jul-16 02:10N 46°14' W 003°26'0 0.3
2017-Jul-16 01:58N 46°14' W 003°26'0 0.2
2017-Jul-16 01:25N 46°13' W 003°26'0 0.2
2017-Jul-16 00:58N 46°13' W 003°26'0 0.1
2017-Jul-16 00:28N 46°13' W 003°26'0 0.1
2017-Jul-15 23:58N 46°13' W 003°26'0 0.1
2017-Jul-15 23:28N 46°13' W 003°26'0 0.1
2017-Jul-15 22:58N 46°13' W 003°26'0 0.1
2017-Jul-15 22:28N 46°13' W 003°26'0 0.1
2017-Jul-15 21:49N 46°13' W 003°26'0 0.1
2017-Jul-15 21:28N 46°13' W 003°26'0 0.1
2017-Jul-15 20:55N 46°13' W 003°26'0 0.0
2017-Jul-15 20:28N 46°13' W 003°26'0 0.1
2017-Jul-15 19:58N 46°13' W 003°26'0 0.1
2017-Jul-15 19:28N 46°13' W 003°26'0 0.1
2017-Jul-15 18:55N 46°13' W 003°26'0 0.0
2017-Jul-15 18:28N 46°13' W 003°26'0 0.1
2017-Jul-15 17:55N 46°13' W 003°26'0 0.1
2017-Jul-15 17:30N 46°13' W 003°26'0 0.0
2017-Jul-15 16:58N 46°13' W 003°26'0 0.1
2017-Jul-15 16:28N 46°13' W 003°26'1 1.4
2017-Jul-15 15:45N 46°13' W 003°24'1 3.2
2017-Jul-15 15:26N 46°13' W 003°23'2 4.5
2017-Jul-15 15:00N 46°12' W 003°26'1 0.3
2017-Jul-15 10:42N 46°12' W 003°24'2 6.8
2017-Jul-15 10:28N 46°12' W 003°22'2 0.3
2017-Jul-15 05:13N 46°13' W 003°24'0 0.0
2017-Jul-14 13:27N 46°13' W 003°24'0 0.9
2017-Jul-14 13:00N 46°13' W 003°24'2 2.7
2017-Jul-14 12:26N 46°12' W 003°22'2 3.8
2017-Jul-14 12:00N 46°12' W 003°24'3 5.3
2017-Jul-14 11:26N 46°12' W 003°19'1 2.6
2017-Jul-14 10:59N 46°13' W 003°19'0 0.9
2017-Jul-14 10:30N 46°13' W 003°19'1 0.9
2017-Jul-14 09:53N 46°13' W 003°20'0 0.8
2017-Jul-14 09:27N 46°13' W 003°21'1 1.5
2017-Jul-14 09:00N 46°12' W 003°21'0 0.7
2017-Jul-14 08:29N 46°12' W 003°21'1 1.1
2017-Jul-14 07:32N 46°12' W 003°19'0 1.2
2017-Jul-14 07:12N 46°12' W 003°19'1 0.6
2017-Jul-14 04:44N 46°14' W 003°18'0 1.3
2017-Jul-14 04:26N 46°13' W 003°17'45 1.5
2017-Jul-12 22:19N 46°24' W 002°14'3 8.1
2017-Jul-12 22:00N 46°24' W 002°10'4 8.1
2017-Jul-12 21:31N 46°25' W 002°05'4 7.8
2017-Jul-12 21:01N 46°26' W 001°59'4 7.8
2017-Jul-12 20:30N 46°27' W 001°54'4 7.9
2017-Jul-12 20:01N 46°28' W 001°48'2 3.3
2017-Jul-12 19:31N 46°30' W 001°47'0 0.0
2017-Jul-12 19:00N 46°30' W 001°47'0 0.0
2017-Jul-12 18:31N 46°30' W 001°47'0 0.0
2017-Jul-12 18:00N 46°30' W 001°47'2 3.8
2017-Jul-12 17:30N 46°28' W 001°48'510.1
2017-Jul-12 17:00N 46°27' W 001°56'510.3
2017-Jul-12 16:30N 46°26' W 002°03'510.3
2017-Jul-12 16:01N 46°24' W 002°10'  
2017-Jul-10 11:40N 46°17' W 003°03'2 9.4
2017-Jul-10 11:30N 46°17' W 003°05'0 0.4
2017-Jul-10 10:29N 46°17' W 003°04'1 1.0
2017-Jul-10 09:07N 46°17' W 003°02'0 0.9
2017-Jul-10 08:46N 46°17' W 003°02'0 1.0
2017-Jul-10 08:27N 46°17' W 003°02'3 2.7
2017-Jul-10 07:29N 46°17' W 003°05'  

Dump ship's entire track history